createdAt,value
2023-02-19T00:01:47.951Z,11.86
2023-02-19T00:04:16.983Z,11.63
2023-02-19T00:06:45.757Z,11.74
2023-02-19T00:09:14.903Z,11.83
2023-02-19T00:11:44.207Z,11.58
2023-02-19T00:14:15.719Z,11.58
2023-02-19T00:16:43.649Z,11.60
2023-02-19T00:19:15.250Z,11.60
2023-02-19T00:21:43.060Z,11.59
2023-02-19T00:24:13.208Z,11.61
2023-02-19T00:26:42.667Z,11.63
2023-02-19T00:29:14.282Z,11.66
2023-02-19T00:31:45.133Z,11.66
2023-02-19T00:34:14.036Z,11.60
2023-02-19T00:36:44.936Z,11.63
2023-02-19T00:39:15.724Z,11.16
2023-02-19T00:41:43.807Z,11.27
2023-02-19T00:44:13.981Z,11.45
2023-02-19T00:46:43.841Z,11.33
2023-02-19T00:49:16.506Z,10.55
2023-02-19T00:51:44.508Z,10.68
2023-02-19T00:54:12.941Z,10.89
2023-02-19T00:56:41.253Z,10.99
2023-02-19T00:59:09.140Z,11.03
2023-02-19T01:01:38.898Z,11.03
2023-02-19T01:04:07.054Z,11.07
2023-02-19T01:06:35.585Z,11.15
2023-02-19T01:09:04.564Z,11.03
2023-02-19T01:11:34.873Z,11.10
2023-02-19T01:14:03.460Z,10.98
2023-02-19T01:16:31.935Z,11.10
2023-02-19T01:19:01.618Z,11.26
2023-02-19T01:21:31.159Z,11.28
2023-02-19T01:23:59.425Z,11.14
2023-02-19T01:26:31.631Z,11.18
2023-02-19T01:29:00.212Z,11.10
2023-02-19T01:31:28.761Z,11.23
2023-02-19T01:33:58.647Z,10.94
2023-02-19T01:36:28.614Z,10.54
2023-02-19T01:38:56.987Z,10.49
2023-02-19T01:41:26.653Z,10.44
2023-02-19T01:43:58.606Z,10.84
2023-02-19T01:46:28.157Z,11.12
2023-02-19T01:48:58.662Z,11.19
2023-02-19T01:51:28.654Z,11.29
2023-02-19T01:54:00.210Z,11.29
2023-02-19T01:56:28.514Z,11.38
2023-02-19T01:58:56.289Z,11.27
2023-02-19T02:01:24.111Z,11.28
2023-02-19T02:03:55.281Z,11.29
2023-02-19T02:06:25.575Z,11.35
2023-02-19T02:09:14.442Z,11.33
2023-02-19T02:11:45.389Z,11.18
2023-02-19T02:14:13.655Z,11.09
2023-02-19T02:16:50.311Z,11.09
2023-02-19T02:19:34.944Z,11.21
2023-02-19T02:22:12.523Z,11.18
2023-02-19T02:25:27.218Z,11.06
2023-02-19T02:28:06.993Z,10.81
2023-02-19T02:30:40.580Z,10.64
2023-02-19T02:33:17.705Z,11.12
2023-02-19T02:35:49.134Z,10.80
2023-02-19T02:38:21.570Z,10.97
2023-02-19T02:40:49.709Z,10.66
2023-02-19T02:43:17.738Z,10.74
2023-02-19T02:45:47.001Z,10.68
2023-02-19T02:48:40.723Z,10.69
2023-02-19T02:51:16.724Z,10.57
2023-02-19T02:54:13.288Z,10.33
2023-02-19T02:56:42.732Z,10.41
2023-02-19T02:59:13.540Z,10.57
2023-02-19T03:02:12.524Z,10.55
2023-02-19T03:05:05.932Z,10.44
2023-02-19T03:07:38.261Z,10.23
2023-02-19T03:10:09.597Z,10.41
2023-02-19T03:12:59.420Z,10.46
2023-02-19T03:15:48.817Z,10.29
2023-02-19T03:18:36.928Z,10.20
2023-02-19T03:21:07.454Z,10.41
2023-02-19T03:23:55.420Z,10.35
2023-02-19T03:26:25.584Z,10.32
2023-02-19T03:29:14.710Z,10.23
2023-02-19T03:31:48.379Z,10.26
2023-02-19T03:34:25.797Z,10.49
2023-02-19T03:36:59.217Z,10.28
2023-02-19T03:39:27.580Z,10.19
2023-02-19T03:42:04.144Z,10.28
2023-02-19T03:44:42.369Z,10.41
2023-02-19T03:47:18.906Z,10.42
2023-02-19T03:49:54.819Z,10.38
2023-02-19T03:52:35.316Z,10.32
2023-02-19T03:55:07.473Z,10.27
2023-02-19T03:57:46.620Z,10.32
2023-02-19T04:00:18.844Z,10.35
2023-02-19T04:02:55.259Z,10.21
2023-02-19T04:05:28.209Z,10.32
2023-02-19T04:08:05.768Z,10.12
2023-02-19T04:10:41.323Z,10.32
2023-02-19T04:13:16.264Z,10.37
2023-02-19T04:15:48.118Z,10.24
2023-02-19T04:18:18.797Z,10.29
2023-02-19T04:20:49.247Z,10.29
2023-02-19T04:23:20.380Z,10.41
2023-02-19T04:25:52.659Z,10.37
2023-02-19T04:28:22.740Z,10.39
2023-02-19T04:30:50.626Z,10.26
2023-02-19T04:33:18.440Z,10.22
2023-02-19T04:35:47.479Z,10.31
2023-02-19T04:38:15.327Z,10.34
2023-02-19T04:40:43.063Z,10.28
2023-02-19T04:43:10.850Z,10.12
2023-02-19T04:45:40.939Z,10.16
2023-02-19T04:48:08.723Z,10.44
2023-02-19T04:50:39.372Z,10.27
2023-02-19T04:53:09.170Z,10.32
2023-02-19T04:55:38.718Z,10.33
2023-02-19T04:58:06.796Z,10.05
2023-02-19T05:00:34.703Z,10.20
2023-02-19T05:03:02.441Z,10.21
2023-02-19T05:05:30.357Z,10.33
2023-02-19T05:07:58.553Z,10.26
2023-02-19T05:10:27.691Z,10.31
2023-02-19T05:12:57.965Z,10.45
2023-02-19T05:15:25.844Z,10.29
2023-02-19T05:17:53.578Z,10.28
2023-02-19T05:20:22.920Z,10.22
2023-02-19T05:22:50.740Z,10.17
2023-02-19T05:25:18.663Z,10.02
2023-02-19T05:27:47.795Z,10.09
2023-02-19T05:30:15.585Z,9.68
2023-02-19T05:32:43.265Z,9.79
2023-02-19T05:35:10.961Z,9.71
2023-02-19T05:37:38.704Z,9.74
2023-02-19T05:40:07.246Z,9.64
2023-02-19T05:42:35.003Z,9.57
2023-02-19T05:45:04.236Z,9.98
2023-02-19T05:47:32.004Z,9.73
2023-02-19T05:49:59.669Z,9.54
2023-02-19T05:52:29.486Z,9.57
2023-02-19T05:54:57.152Z,9.39
2023-02-19T05:57:27.273Z,9.49
2023-02-19T05:59:54.962Z,9.39
2023-02-19T06:02:24.001Z,9.32
2023-02-19T06:04:51.792Z,9.36
2023-02-19T06:07:19.545Z,9.32
2023-02-19T06:09:47.322Z,9.42
2023-02-19T06:12:17.185Z,9.45
2023-02-19T06:14:45.069Z,9.47
2023-02-19T06:17:12.830Z,9.37
2023-02-19T06:19:42.193Z,9.45
2023-02-19T06:22:10.524Z,9.29
2023-02-19T06:24:38.217Z,9.35
2023-02-19T06:27:08.566Z,9.24
2023-02-19T06:29:38.219Z,9.27
2023-02-19T06:32:06.652Z,9.34
2023-02-19T06:34:35.586Z,9.23
2023-02-19T06:37:04.674Z,9.30
2023-02-19T06:39:32.401Z,9.34
2023-02-19T06:42:00.148Z,9.28
2023-02-19T06:44:27.848Z,9.38
2023-02-19T06:46:56.896Z,9.44
2023-02-19T06:49:24.737Z,9.55
2023-02-19T06:51:52.489Z,9.52
2023-02-19T06:54:21.573Z,9.49
2023-02-19T06:56:51.647Z,9.39
2023-02-19T06:59:19.501Z,9.34
2023-02-19T07:01:47.567Z,9.43
2023-02-19T07:04:15.864Z,9.49
2023-02-19T07:06:46.016Z,9.41
2023-02-19T07:09:13.892Z,9.50
2023-02-19T07:11:43.111Z,9.57
2023-02-19T07:14:17.637Z,9.54
2023-02-19T07:16:47.269Z,9.61
2023-02-19T07:19:16.277Z,9.66
2023-02-19T07:21:44.274Z,9.59
2023-02-19T07:24:12.105Z,9.59
2023-02-19T07:26:39.894Z,9.67
2023-02-19T07:29:10.560Z,9.69
2023-02-19T07:31:38.388Z,9.61
2023-02-19T07:34:07.711Z,9.59
2023-02-19T07:36:35.446Z,9.74
2023-02-19T07:39:03.195Z,9.76
2023-02-19T07:41:31.043Z,9.74
2023-02-19T07:43:59.669Z,9.96
2023-02-19T07:46:31.196Z,9.86
2023-02-19T07:49:00.670Z,9.86
2023-02-19T07:51:28.422Z,9.89
2023-02-19T07:53:56.164Z,9.94
2023-02-19T07:56:23.917Z,9.89
2023-02-19T07:58:51.719Z,10.04
2023-02-19T08:01:42.027Z,10.09
2023-02-19T08:04:12.149Z,10.10
2023-02-19T08:06:40.267Z,10.14
2023-02-19T08:09:08.364Z,10.02
2023-02-19T08:11:53.837Z,10.14
2023-02-19T08:14:26.032Z,10.00
2023-02-19T08:16:56.245Z,10.09
2023-02-19T08:19:25.378Z,10.09
2023-02-19T08:21:53.400Z,10.10
2023-02-19T08:24:21.184Z,9.98
2023-02-19T08:26:48.910Z,10.07
2023-02-19T08:29:16.580Z,10.16
2023-02-19T08:31:44.526Z,10.23
2023-02-19T08:34:12.426Z,10.31
2023-02-19T08:36:44.168Z,10.36
2023-02-19T08:39:11.894Z,10.33
2023-02-19T08:41:40.729Z,10.29
2023-02-19T08:44:08.848Z,10.50
2023-02-19T08:46:36.610Z,10.39
2023-02-19T08:49:04.704Z,10.42
2023-02-19T08:51:35.955Z,10.47
2023-02-19T08:54:05.666Z,10.79
2023-02-19T08:56:33.559Z,10.81
2023-02-19T08:59:01.359Z,11.19
2023-02-19T09:01:30.800Z,11.01
2023-02-19T09:03:58.733Z,10.58
2023-02-19T09:06:26.510Z,10.80
2023-02-19T09:08:54.326Z,10.93
2023-02-19T09:11:23.445Z,11.14
2023-02-19T09:13:51.218Z,10.95
2023-02-19T09:16:19.039Z,11.06
2023-02-19T09:18:46.825Z,11.04
2023-02-19T09:21:14.744Z,11.13
2023-02-19T09:23:42.561Z,11.63
2023-02-19T09:26:11.505Z,11.36
2023-02-19T09:28:43.145Z,11.45
2023-02-19T09:31:13.333Z,11.50
2023-02-19T09:33:43.650Z,11.52
2023-02-19T09:36:12.476Z,11.56
2023-02-19T09:38:40.607Z,11.34
2023-02-19T09:41:17.956Z,11.61
2023-02-19T09:43:47.379Z,11.27
2023-02-19T09:46:26.045Z,11.55
2023-02-19T09:49:03.397Z,11.83
2023-02-19T09:51:34.206Z,11.49
2023-02-19T09:54:03.417Z,11.68
2023-02-19T09:56:31.459Z,11.97
2023-02-19T09:59:01.717Z,12.02
2023-02-19T10:01:38.386Z,12.28
2023-02-19T10:04:06.216Z,12.73
2023-02-19T10:06:36.236Z,12.35
2023-02-19T10:09:20.168Z,12.29
2023-02-19T10:11:50.609Z,12.20
2023-02-19T10:14:27.220Z,12.47
2023-02-19T10:16:54.921Z,12.68
2023-02-19T10:19:22.710Z,12.95
2023-02-19T10:21:50.426Z,12.74
2023-02-19T10:24:22.848Z,12.58
2023-02-19T10:26:51.804Z,12.96
2023-02-19T10:29:24.725Z,12.64
2023-02-19T10:32:14.226Z,12.86
2023-02-19T10:34:42.071Z,12.96
2023-02-19T10:37:15.133Z,12.76
2023-02-19T10:39:45.961Z,12.86
2023-02-19T10:42:19.018Z,12.72
2023-02-19T10:44:55.513Z,12.77
2023-02-19T10:47:26.763Z,12.60
2023-02-19T10:49:58.214Z,12.56
2023-02-19T10:52:29.130Z,12.88
2023-02-19T10:54:58.670Z,12.99
2023-02-19T10:57:32.995Z,13.20
2023-02-19T11:00:04.058Z,13.47
2023-02-19T11:02:32.476Z,13.22
2023-02-19T11:05:07.209Z,13.37
2023-02-19T11:07:35.543Z,13.54
2023-02-19T11:10:05.716Z,13.05
2023-02-19T11:12:36.003Z,13.01
2023-02-19T11:15:21.228Z,13.14
2023-02-19T11:17:56.504Z,12.66
2023-02-19T11:20:28.981Z,12.75
2023-02-19T11:23:01.911Z,12.57
2023-02-19T11:25:30.844Z,12.88
2023-02-19T11:28:02.684Z,12.77
2023-02-19T11:30:37.794Z,12.57
2023-02-19T11:33:22.209Z,12.89
2023-02-19T11:35:51.599Z,12.44
2023-02-19T11:38:21.497Z,12.69
2023-02-19T11:40:55.603Z,12.89
2023-02-19T11:43:45.819Z,13.28
2023-02-19T11:46:22.197Z,13.73
2023-02-19T11:48:56.683Z,13.41
2023-02-19T11:51:42.282Z,13.78
2023-02-19T11:54:23.831Z,13.40
2023-02-19T11:57:00.512Z,13.49
2023-02-19T11:59:34.914Z,13.28
2023-02-19T12:02:28.190Z,13.31
2023-02-19T12:05:19.242Z,12.92
2023-02-19T12:08:34.208Z,13.36
2023-02-19T12:11:15.295Z,12.87
2023-02-19T12:14:03.043Z,13.02
2023-02-19T12:16:37.463Z,12.95
2023-02-19T12:19:30.089Z,13.14
2023-02-19T12:22:13.453Z,13.56
2023-02-19T12:24:55.570Z,13.27
2023-02-19T12:27:38.827Z,13.41
2023-02-19T12:30:32.809Z,12.82
2023-02-19T12:33:29.864Z,13.14
2023-02-19T12:36:09.749Z,12.82
2023-02-19T12:38:44.218Z,12.96
2023-02-19T12:41:20.773Z,12.99
2023-02-19T12:43:56.587Z,13.13
2023-02-19T12:46:32.527Z,13.31
2023-02-19T12:49:06.855Z,12.82
2023-02-19T12:51:44.079Z,13.06
2023-02-19T12:54:17.921Z,13.10
2023-02-19T12:56:51.084Z,13.03
2023-02-19T12:59:25.355Z,12.99
2023-02-19T13:02:01.593Z,13.28
2023-02-19T13:04:41.349Z,13.18
2023-02-19T13:07:18.188Z,13.26
2023-02-19T13:09:50.557Z,13.36
2023-02-19T13:12:22.539Z,13.13
2023-02-19T13:14:56.200Z,12.80
2023-02-19T13:17:29.129Z,13.11
2023-02-19T13:20:01.782Z,12.96
2023-02-19T13:22:56.709Z,12.92
2023-02-19T13:25:41.130Z,12.81
2023-02-19T13:28:25.329Z,12.94
2023-02-19T13:31:14.442Z,12.39
2023-02-19T13:33:56.478Z,12.72
2023-02-19T13:36:27.464Z,12.85
2023-02-19T13:38:58.610Z,12.67
2023-02-19T13:41:30.982Z,12.55
2023-02-19T13:44:03.478Z,12.29
2023-02-19T13:46:37.903Z,12.50
2023-02-19T13:49:26.283Z,12.27
2023-02-19T13:51:55.576Z,12.34
2023-02-19T13:54:29.769Z,12.52
2023-02-19T13:57:35.266Z,12.38
2023-02-19T14:00:03.202Z,12.24
2023-02-19T14:02:35.199Z,12.46
2023-02-19T14:05:07.254Z,12.21
2023-02-19T14:07:53.972Z,12.39
2023-02-19T14:11:02.379Z,12.38
2023-02-19T14:13:59.149Z,12.49
2023-02-19T14:16:31.833Z,12.40
2023-02-19T14:18:59.919Z,12.19
2023-02-19T14:21:36.519Z,12.33
2023-02-19T14:24:06.038Z,12.62
2023-02-19T14:26:35.661Z,12.76
2023-02-19T14:29:04.261Z,12.86
2023-02-19T14:31:34.790Z,12.92
2023-02-19T14:34:06.612Z,12.80
2023-02-19T14:36:39.766Z,12.89
2023-02-19T14:39:13.976Z,13.20
2023-02-19T14:41:46.989Z,13.14
2023-02-19T14:44:21.489Z,13.12
2023-02-19T14:46:57.773Z,12.96
2023-02-19T14:49:31.489Z,12.86
2023-02-19T14:52:03.970Z,12.84
2023-02-19T14:54:40.724Z,12.98
2023-02-19T14:57:19.222Z,12.95
2023-02-19T14:59:58.604Z,12.94
2023-02-19T15:02:27.508Z,12.78
2023-02-19T15:04:55.908Z,12.75
2023-02-19T15:07:27.549Z,12.76
2023-02-19T15:09:58.574Z,12.60
2023-02-19T15:12:31.465Z,12.46
2023-02-19T15:15:03.931Z,12.86
2023-02-19T15:17:34.579Z,12.67
2023-02-19T15:20:09.886Z,12.76
2023-02-19T15:22:41.517Z,12.06
2023-02-19T15:25:13.350Z,12.34
2023-02-19T15:27:42.495Z,12.56
2023-02-19T15:30:21.340Z,12.53
2023-02-19T15:32:56.007Z,12.58
2023-02-19T15:35:25.235Z,12.45
2023-02-19T15:37:55.000Z,12.46
2023-02-19T15:40:27.788Z,12.65
2023-02-19T15:42:58.319Z,12.78
2023-02-19T15:45:29.588Z,12.60
2023-02-19T15:48:00.877Z,12.38
2023-02-19T15:50:31.846Z,12.54
2023-02-19T15:53:09.322Z,12.12
2023-02-19T15:55:41.870Z,12.16
2023-02-19T15:58:20.467Z,11.94
2023-02-19T16:00:51.512Z,12.13
2023-02-19T16:03:21.274Z,12.26
2023-02-19T16:05:59.639Z,12.37
2023-02-19T16:08:31.209Z,12.18
2023-02-19T16:11:00.900Z,12.14
2023-02-19T16:13:33.759Z,12.24
2023-02-19T16:16:07.569Z,12.14
2023-02-19T16:18:36.135Z,12.06
2023-02-19T16:21:08.998Z,12.03
2023-02-19T16:23:42.278Z,11.89
2023-02-19T16:26:10.189Z,11.89
2023-02-19T16:28:42.086Z,11.83
2023-02-19T16:31:12.923Z,11.79
2023-02-19T16:33:42.793Z,11.74
2023-02-19T16:36:35.878Z,11.58
2023-02-19T16:39:21.711Z,11.70
2023-02-19T16:42:14.408Z,11.51
2023-02-19T16:44:44.258Z,11.75
2023-02-19T16:47:25.984Z,11.73
2023-02-19T16:49:54.008Z,11.62
2023-02-19T16:52:22.083Z,11.73
2023-02-19T16:54:50.544Z,11.84
2023-02-19T16:57:18.576Z,11.89
2023-02-19T16:59:48.771Z,11.77
2023-02-19T17:02:21.760Z,11.86
2023-02-19T17:04:50.649Z,11.85
2023-02-19T17:07:19.140Z,12.04
2023-02-19T17:09:47.259Z,12.12
2023-02-19T17:12:18.120Z,12.11
2023-02-19T17:14:47.301Z,12.01
2023-02-19T17:17:15.146Z,12.14
2023-02-19T17:19:44.248Z,11.81
2023-02-19T17:22:17.121Z,11.81
2023-02-19T17:24:46.706Z,11.92
2023-02-19T17:27:14.984Z,12.04
2023-02-19T17:29:42.832Z,11.84
2023-02-19T17:32:11.979Z,11.85
2023-02-19T17:34:39.953Z,11.77
2023-02-19T17:37:07.681Z,11.70
2023-02-19T17:39:35.423Z,11.57
2023-02-19T17:42:03.761Z,11.27
2023-02-19T17:44:31.539Z,10.88
2023-02-19T17:46:59.296Z,10.72
2023-02-19T17:49:28.547Z,10.61
2023-02-19T17:51:56.311Z,10.57
2023-02-19T17:54:24.070Z,10.50
2023-02-19T17:56:51.900Z,10.70
2023-02-19T17:59:19.654Z,10.91
2023-02-19T18:01:47.508Z,10.56
2023-02-19T18:04:15.352Z,10.57
2023-02-19T18:06:44.553Z,10.91
2023-02-19T18:09:15.205Z,11.24
2023-02-19T18:11:45.687Z,11.46
2023-02-19T18:14:13.602Z,11.56
2023-02-19T18:16:48.729Z,11.39
2023-02-19T18:19:17.552Z,11.55
2023-02-19T18:21:46.656Z,11.29
2023-02-19T18:24:14.493Z,11.49
2023-02-19T18:26:43.090Z,11.27
2023-02-19T18:29:10.885Z,11.33
2023-02-19T18:31:39.735Z,11.43
2023-02-19T18:34:16.355Z,11.52
2023-02-19T18:36:46.682Z,11.47
2023-02-19T18:39:14.544Z,11.39
2023-02-19T18:41:42.870Z,11.36
2023-02-19T18:44:10.687Z,11.50
2023-02-19T18:46:39.331Z,11.53
2023-02-19T18:49:07.946Z,11.12
2023-02-19T18:51:35.711Z,11.15
2023-02-19T18:54:09.322Z,11.20
2023-02-19T18:56:43.443Z,11.45
2023-02-19T18:59:12.307Z,11.27
2023-02-19T19:01:41.650Z,11.25
2023-02-19T19:04:10.859Z,11.14
2023-02-19T19:06:38.835Z,10.91
2023-02-19T19:09:08.621Z,10.85
2023-02-19T19:11:36.622Z,10.95
2023-02-19T19:14:04.892Z,11.01
2023-02-19T19:16:34.774Z,11.02
2023-02-19T19:19:03.356Z,11.33
2023-02-19T19:21:32.180Z,11.29
2023-02-19T19:24:00.628Z,11.34
2023-02-19T19:26:30.608Z,11.35
2023-02-19T19:28:59.414Z,11.05
2023-02-19T19:31:37.682Z,11.07
2023-02-19T19:34:06.240Z,11.15
2023-02-19T19:36:35.002Z,11.24
2023-02-19T19:39:03.929Z,11.22
2023-02-19T19:41:33.239Z,11.42
2023-02-19T19:44:04.256Z,11.41
2023-02-19T19:46:32.318Z,11.14
2023-02-19T19:49:00.341Z,11.12
2023-02-19T19:51:32.820Z,11.24
2023-02-19T19:54:00.983Z,11.14
2023-02-19T19:56:28.739Z,11.13
2023-02-19T19:58:57.937Z,11.28
2023-02-19T20:01:26.128Z,11.23
2023-02-19T20:03:53.989Z,11.30
2023-02-19T20:06:27.019Z,11.23
2023-02-19T20:08:55.091Z,10.82
2023-02-19T20:11:23.204Z,11.02
2023-02-19T20:13:53.267Z,11.20
2023-02-19T20:16:26.936Z,11.09
2023-02-19T20:18:55.210Z,11.14
2023-02-19T20:21:22.990Z,10.92
2023-02-19T20:23:50.844Z,10.88
2023-02-19T20:26:25.583Z,10.96
2023-02-19T20:28:53.393Z,10.94
2023-02-19T20:31:21.842Z,10.80
2023-02-19T20:33:52.084Z,10.61
2023-02-19T20:36:20.845Z,10.96
2023-02-19T20:38:51.067Z,10.69
2023-02-19T20:41:18.809Z,10.84
2023-02-19T20:43:46.577Z,10.96
2023-02-19T20:46:14.821Z,10.82
2023-02-19T20:48:42.681Z,10.86
2023-02-19T20:51:11.791Z,10.89
2023-02-19T20:53:40.689Z,10.78
2023-02-19T20:56:08.540Z,11.01
2023-02-19T20:58:36.257Z,10.83
2023-02-19T21:01:04.136Z,10.97
2023-02-19T21:03:31.927Z,11.01
2023-02-19T21:06:02.002Z,10.92
2023-02-19T21:08:31.138Z,10.98
2023-02-19T21:10:59.041Z,10.94
2023-02-19T21:13:27.979Z,10.69
2023-02-19T21:15:57.061Z,10.86
2023-02-19T21:18:24.796Z,10.89
2023-02-19T21:20:52.550Z,11.05
2023-02-19T21:23:20.268Z,10.82
2023-02-19T21:25:54.227Z,10.82
2023-02-19T21:28:22.285Z,10.70
2023-02-19T21:30:50.097Z,10.91
2023-02-19T21:33:17.897Z,10.75
2023-02-19T21:35:45.997Z,10.88
2023-02-19T21:38:13.725Z,10.82
2023-02-19T21:40:41.518Z,10.77
2023-02-19T21:43:10.637Z,10.83
2023-02-19T21:45:38.490Z,10.92
2023-02-19T21:48:08.349Z,10.99
2023-02-19T21:50:36.249Z,10.80
2023-02-19T21:53:05.493Z,10.87
2023-02-19T21:55:33.411Z,10.91
2023-02-19T21:58:03.452Z,10.80
2023-02-19T22:00:32.858Z,10.81
2023-02-19T22:03:01.037Z,10.96
2023-02-19T22:05:28.877Z,10.74
2023-02-19T22:07:58.181Z,10.55
2023-02-19T22:10:25.919Z,10.81
2023-02-19T22:12:53.658Z,10.88
2023-02-19T22:15:21.436Z,10.74
2023-02-19T22:17:50.545Z,10.76
2023-02-19T22:20:21.658Z,10.91
2023-02-19T22:22:49.815Z,10.88
2023-02-19T22:25:17.819Z,10.90
2023-02-19T22:27:48.938Z,10.61
2023-02-19T22:30:16.857Z,10.80
2023-02-19T22:32:44.601Z,10.45
2023-02-19T22:35:15.679Z,10.75
2023-02-19T22:37:45.990Z,10.93
2023-02-19T22:40:14.182Z,11.00
2023-02-19T22:42:41.934Z,10.90
2023-02-19T22:45:12.087Z,10.83
2023-02-19T22:47:40.191Z,10.67
2023-02-19T22:50:08.862Z,10.65
2023-02-19T22:52:37.946Z,10.77
2023-02-19T22:55:06.187Z,10.68
2023-02-19T22:57:33.966Z,10.71
2023-02-19T23:00:01.749Z,10.93
2023-02-19T23:02:29.516Z,10.88
2023-02-19T23:04:57.294Z,10.76
2023-02-19T23:07:25.234Z,10.73
2023-02-19T23:09:54.463Z,10.74
2023-02-19T23:12:22.206Z,10.88
2023-02-19T23:14:49.949Z,10.75
2023-02-19T23:17:17.747Z,10.78
2023-02-19T23:19:45.616Z,10.91
2023-02-19T23:22:13.511Z,10.82
2023-02-19T23:24:41.313Z,10.62
2023-02-19T23:27:10.415Z,10.88
2023-02-19T23:29:40.494Z,10.80
2023-02-19T23:32:08.302Z,10.95
2023-02-19T23:34:36.137Z,10.74
2023-02-19T23:37:03.884Z,10.89
2023-02-19T23:39:31.759Z,10.67
2023-02-19T23:41:59.608Z,10.56
2023-02-19T23:44:28.708Z,10.65
2023-02-19T23:46:58.888Z,10.70
2023-02-19T23:49:26.638Z,10.74
2023-02-19T23:51:54.400Z,10.71
2023-02-19T23:54:22.128Z,10.72
2023-02-19T23:56:50.096Z,10.83
2023-02-19T23:59:17.884Z,10.83
